createdAt,value
2022-12-11T00:00:41.003Z,-0.30
2022-12-11T00:03:15.408Z,-0.30
2022-12-11T00:05:46.637Z,-0.30
2022-12-11T00:08:14.796Z,-0.30
2022-12-11T00:10:49.611Z,-0.30
2022-12-11T00:13:17.918Z,-0.30
2022-12-11T00:15:45.898Z,-0.30
2022-12-11T00:18:14.771Z,-0.30
2022-12-11T00:20:43.274Z,-0.20
2022-12-11T00:23:13.132Z,-0.20
2022-12-11T00:25:45.099Z,-0.20
2022-12-11T00:28:13.709Z,-0.20
2022-12-11T00:30:42.846Z,-0.30
2022-12-11T00:33:14.027Z,-0.30
2022-12-11T00:35:43.181Z,-0.30
2022-12-11T00:38:16.195Z,-0.30
2022-12-11T00:40:44.631Z,-0.30
2022-12-11T00:43:12.868Z,-0.30
2022-12-11T00:45:42.820Z,0.00
2022-12-11T00:48:11.569Z,-0.10
2022-12-11T00:50:41.024Z,-0.30
2022-12-11T00:53:09.428Z,-0.20
2022-12-11T00:55:40.503Z,-0.20
2022-12-11T00:58:09.262Z,-0.20
2022-12-11T01:00:37.873Z,-0.20
2022-12-11T01:03:06.610Z,-0.20
2022-12-11T01:05:35.042Z,-0.20
2022-12-11T01:08:03.194Z,-0.20
2022-12-11T01:10:31.424Z,0.00
2022-12-11T01:13:02.907Z,-0.10
2022-12-11T01:15:37.525Z,0.00
2022-12-11T01:18:09.275Z,-0.20
2022-12-11T01:20:39.509Z,-0.20
2022-12-11T01:23:07.900Z,-0.30
2022-12-11T01:25:39.066Z,-0.30
2022-12-11T01:28:09.239Z,-0.20
2022-12-11T01:30:38.115Z,-0.30
2022-12-11T01:33:06.324Z,-0.30
2022-12-11T01:35:34.349Z,-0.20
2022-12-11T01:38:02.867Z,-0.20
2022-12-11T01:40:31.299Z,-0.20
2022-12-11T01:42:59.427Z,-0.20
2022-12-11T01:45:41.824Z,-0.20
2022-12-11T01:48:13.467Z,-0.20
2022-12-11T01:50:44.936Z,0.00
2022-12-11T01:53:17.727Z,-0.30
2022-12-11T01:55:47.568Z,-0.30
2022-12-11T01:58:17.422Z,-0.20
2022-12-11T02:00:46.914Z,-0.20
2022-12-11T02:03:15.316Z,0.00
2022-12-11T02:05:43.277Z,-0.20
2022-12-11T02:08:11.707Z,-0.20
2022-12-11T02:10:57.326Z,-0.30
2022-12-11T02:13:33.341Z,-0.20
2022-12-11T02:16:08.023Z,-0.20
2022-12-11T02:18:41.413Z,-0.20
2022-12-11T02:21:15.539Z,-0.30
2022-12-11T02:24:05.446Z,-0.40
2022-12-11T02:26:48.205Z,-0.30
2022-12-11T02:29:22.160Z,-0.30
2022-12-11T02:31:56.324Z,-0.40
2022-12-11T02:34:30.685Z,-0.40
2022-12-11T02:37:01.851Z,-0.40
2022-12-11T02:39:30.507Z,-0.40
2022-12-11T02:41:59.514Z,-0.40
2022-12-11T02:44:34.455Z,-0.40
2022-12-11T02:47:04.587Z,-0.40
2022-12-11T02:49:34.373Z,-0.40
2022-12-11T02:52:05.993Z,-0.40
2022-12-11T02:54:38.197Z,-0.40
2022-12-11T02:57:10.932Z,-0.40
2022-12-11T02:59:43.103Z,-0.40
2022-12-11T03:02:13.585Z,-0.40
2022-12-11T03:04:43.165Z,-0.40
2022-12-11T03:07:15.842Z,-0.40
2022-12-11T03:09:45.766Z,-0.40
2022-12-11T03:12:17.540Z,-0.20
2022-12-11T03:14:48.034Z,-0.30
2022-12-11T03:17:20.037Z,-0.30
2022-12-11T03:19:54.168Z,-0.40
2022-12-11T03:22:27.083Z,-0.40
2022-12-11T03:25:02.379Z,-0.20
2022-12-11T03:27:37.413Z,-0.30
2022-12-11T03:30:11.080Z,-0.30
2022-12-11T03:32:43.331Z,-0.30
2022-12-11T03:35:17.565Z,-0.30
2022-12-11T03:37:47.197Z,-0.30
2022-12-11T03:40:18.884Z,-0.30
2022-12-11T03:42:50.048Z,-0.30
2022-12-11T03:45:21.454Z,-0.30
2022-12-11T03:47:51.002Z,-0.30
2022-12-11T03:50:21.233Z,-0.30
2022-12-11T03:52:50.176Z,-0.30
2022-12-11T03:55:22.265Z,-0.30
2022-12-11T03:57:50.505Z,-0.30
2022-12-11T04:00:21.624Z,-0.30
2022-12-11T04:03:13.612Z,-0.40
2022-12-11T04:05:42.890Z,-0.10
2022-12-11T04:08:11.471Z,-0.40
2022-12-11T04:10:39.702Z,-0.30
2022-12-11T04:13:07.806Z,-0.30
2022-12-11T04:15:36.929Z,-0.30
2022-12-11T04:18:19.554Z,-0.30
2022-12-11T04:21:04.948Z,-0.10
2022-12-11T04:23:50.406Z,-0.30
2022-12-11T04:26:20.407Z,-0.30
2022-12-11T04:28:49.442Z,-0.30
2022-12-11T04:31:21.585Z,-0.30
2022-12-11T04:33:50.008Z,-0.20
2022-12-11T04:36:18.295Z,-0.20
2022-12-11T04:38:46.285Z,-0.20
2022-12-11T04:41:16.149Z,-0.30
2022-12-11T04:43:45.421Z,-0.20
2022-12-11T04:46:18.152Z,-0.20
2022-12-11T04:48:52.422Z,-0.20
2022-12-11T04:51:23.760Z,-0.20
2022-12-11T04:53:51.790Z,-0.20
2022-12-11T04:56:19.991Z,-0.20
2022-12-11T04:58:48.285Z,-0.10
2022-12-11T05:01:18.648Z,-0.10
2022-12-11T05:03:48.039Z,-0.20
2022-12-11T05:06:16.364Z,-0.20
2022-12-11T05:08:45.136Z,-0.10
2022-12-11T05:11:15.224Z,-0.10
2022-12-11T05:13:43.533Z,-0.10
2022-12-11T05:16:14.130Z,-0.10
2022-12-11T05:18:42.526Z,-0.10
2022-12-11T05:21:14.143Z,-0.10
2022-12-11T05:23:43.074Z,-0.10
2022-12-11T05:26:15.225Z,-0.10
2022-12-11T05:28:43.436Z,0.00
2022-12-11T05:31:14.749Z,0.20
2022-12-11T05:33:43.346Z,0.00
2022-12-11T05:36:17.317Z,0.10
2022-12-11T05:38:45.603Z,0.20
2022-12-11T05:41:15.928Z,0.10
2022-12-11T05:43:44.119Z,0.10
2022-12-11T05:46:14.369Z,0.10
2022-12-11T05:48:43.530Z,0.10
2022-12-11T05:51:13.833Z,0.10
2022-12-11T05:53:43.422Z,0.30
2022-12-11T05:56:13.803Z,0.10
2022-12-11T05:58:42.887Z,0.10
2022-12-11T06:01:12.379Z,0.20
2022-12-11T06:03:40.452Z,0.20
2022-12-11T06:06:09.667Z,0.20
2022-12-11T06:08:39.290Z,0.20
2022-12-11T06:11:07.749Z,0.20
2022-12-11T06:13:36.929Z,0.20
2022-12-11T06:16:07.453Z,0.20
2022-12-11T06:18:37.680Z,0.20
2022-12-11T06:21:13.522Z,0.30
2022-12-11T06:23:43.582Z,0.30
2022-12-11T06:26:12.566Z,0.30
2022-12-11T06:28:40.739Z,0.30
2022-12-11T06:31:09.164Z,0.20
2022-12-11T06:33:37.868Z,0.30
2022-12-11T06:36:07.546Z,0.30
2022-12-11T06:38:35.724Z,0.30
2022-12-11T06:41:06.717Z,0.30
2022-12-11T06:43:35.838Z,0.30
2022-12-11T06:46:05.483Z,0.30
2022-12-11T06:48:34.020Z,0.20
2022-12-11T06:51:06.394Z,0.40
2022-12-11T06:53:34.460Z,0.40
2022-12-11T06:56:05.820Z,0.40
2022-12-11T06:58:35.627Z,0.40
2022-12-11T07:01:04.541Z,0.40
2022-12-11T07:03:33.531Z,0.30
2022-12-11T07:06:02.579Z,0.40
2022-12-11T07:08:32.046Z,0.30
2022-12-11T07:11:06.199Z,0.30
2022-12-11T07:13:34.801Z,0.30
2022-12-11T07:16:04.605Z,0.30
2022-12-11T07:18:33.115Z,0.20
2022-12-11T07:21:01.409Z,0.30
2022-12-11T07:23:30.030Z,0.40
2022-12-11T07:25:58.796Z,0.40
2022-12-11T07:28:28.453Z,0.40
2022-12-11T07:30:56.518Z,0.40
2022-12-11T07:33:24.695Z,0.30
2022-12-11T07:35:52.849Z,0.30
2022-12-11T07:38:23.340Z,0.30
2022-12-11T07:40:51.384Z,0.40
2022-12-11T07:43:19.494Z,0.40
2022-12-11T07:45:49.048Z,0.40
2022-12-11T07:48:17.163Z,0.40
2022-12-11T07:50:45.181Z,0.40
2022-12-11T07:53:13.181Z,0.60
2022-12-11T07:55:41.729Z,0.40
2022-12-11T07:58:09.901Z,0.40
2022-12-11T08:00:38.011Z,0.30
2022-12-11T08:03:07.489Z,0.40
2022-12-11T08:05:35.627Z,0.40
2022-12-11T08:08:03.752Z,0.40
2022-12-11T08:10:34.829Z,0.40
2022-12-11T08:13:02.938Z,0.50
2022-12-11T08:15:30.996Z,0.40
2022-12-11T08:17:59.105Z,0.50
2022-12-11T08:20:29.015Z,0.40
2022-12-11T08:22:59.170Z,0.60
2022-12-11T08:25:27.579Z,0.40
2022-12-11T08:27:55.555Z,0.40
2022-12-11T08:30:23.557Z,0.60
2022-12-11T08:32:51.578Z,0.40
2022-12-11T08:35:19.753Z,0.30
2022-12-11T08:37:49.371Z,0.40
2022-12-11T08:40:17.868Z,0.40
2022-12-11T08:42:46.027Z,0.40
2022-12-11T08:45:14.342Z,0.40
2022-12-11T08:47:43.116Z,0.40
2022-12-11T08:50:11.873Z,0.30
2022-12-11T08:52:39.993Z,0.40
2022-12-11T08:55:10.493Z,0.30
2022-12-11T08:57:39.808Z,0.30
2022-12-11T09:00:10.203Z,0.30
2022-12-11T09:02:38.308Z,0.40
2022-12-11T09:05:09.729Z,0.40
2022-12-11T09:07:39.196Z,0.40
2022-12-11T09:10:10.123Z,0.40
2022-12-11T09:12:38.834Z,0.50
2022-12-11T09:15:07.991Z,0.60
2022-12-11T09:17:36.339Z,0.50
2022-12-11T09:20:07.937Z,0.50
2022-12-11T09:22:36.044Z,0.50
2022-12-11T09:25:04.238Z,0.50
2022-12-11T09:27:35.456Z,0.50
2022-12-11T09:30:03.752Z,0.50
2022-12-11T09:32:32.022Z,0.50
2022-12-11T09:35:00.455Z,0.40
2022-12-11T09:37:28.788Z,0.50
2022-12-11T09:39:59.232Z,0.50
2022-12-11T09:42:42.212Z,0.60
2022-12-11T09:45:16.299Z,0.50
2022-12-11T09:47:47.319Z,0.50
2022-12-11T09:50:20.553Z,0.50
2022-12-11T09:52:59.061Z,0.40
2022-12-11T09:55:36.963Z,0.40
2022-12-11T09:58:16.325Z,0.40
2022-12-11T10:00:48.603Z,0.40
2022-12-11T10:03:50.253Z,0.50
2022-12-11T10:06:22.970Z,0.50
2022-12-11T10:09:01.852Z,0.50
2022-12-11T10:11:54.472Z,0.80
2022-12-11T10:14:34.096Z,0.40
2022-12-11T10:17:09.530Z,0.80
2022-12-11T10:19:38.403Z,0.50
2022-12-11T10:22:13.926Z,0.70
2022-12-11T10:27:35.860Z,0.50
2022-12-11T10:30:15.921Z,0.50
2022-12-11T10:32:52.098Z,0.50
2022-12-11T10:35:29.007Z,0.70
2022-12-11T10:38:03.063Z,0.60
2022-12-11T10:40:36.212Z,0.80
2022-12-11T10:43:04.416Z,0.90
2022-12-11T10:45:33.992Z,0.60
2022-12-11T10:48:06.785Z,0.60
2022-12-11T10:50:35.008Z,0.50
2022-12-11T10:53:03.326Z,0.50
2022-12-11T10:55:44.938Z,0.60
2022-12-11T10:58:19.102Z,0.70
2022-12-11T11:01:03.688Z,0.60
2022-12-11T11:03:33.236Z,0.70
2022-12-11T11:06:07.240Z,0.60
2022-12-11T11:08:44.197Z,0.60
2022-12-11T11:11:27.150Z,0.60
2022-12-11T11:14:06.874Z,0.60
2022-12-11T11:16:39.794Z,0.70
2022-12-11T11:19:08.518Z,0.70
2022-12-11T11:21:37.227Z,0.70
2022-12-11T11:24:05.800Z,0.70
2022-12-11T11:27:11.286Z,0.70
2022-12-11T11:29:30.181Z,0.70
2022-12-11T11:32:04.823Z,0.70
2022-12-11T11:34:32.919Z,0.80
2022-12-11T11:37:05.601Z,0.50
2022-12-11T11:39:38.631Z,0.70
2022-12-11T11:42:14.738Z,0.80
2022-12-11T11:44:48.771Z,0.70
2022-12-11T11:47:24.996Z,0.70
2022-12-11T11:50:01.089Z,0.70
2022-12-11T11:52:35.443Z,0.70
2022-12-11T11:55:10.793Z,0.60
2022-12-11T11:57:43.606Z,0.70
2022-12-11T12:00:20.833Z,0.70
2022-12-11T12:02:55.247Z,0.70
2022-12-11T12:05:29.002Z,0.60
2022-12-11T12:08:11.065Z,0.70
2022-12-11T12:10:48.887Z,0.80
2022-12-11T12:13:48.663Z,0.70
2022-12-11T12:16:51.439Z,0.70
2022-12-11T12:19:19.569Z,0.70
2022-12-11T12:21:53.499Z,0.70
2022-12-11T12:24:35.250Z,0.70
2022-12-11T12:27:49.835Z,0.40
2022-12-11T12:30:05.725Z,0.70
2022-12-11T12:32:44.260Z,0.70
2022-12-11T12:35:31.910Z,0.70
2022-12-11T12:38:08.217Z,0.70
2022-12-11T12:40:41.565Z,0.70
2022-12-11T12:43:34.038Z,0.70
2022-12-11T12:46:12.881Z,0.80
2022-12-11T12:48:41.472Z,0.70
2022-12-11T12:51:15.584Z,0.70
2022-12-11T12:53:48.016Z,0.80
2022-12-11T12:56:17.197Z,0.70
2022-12-11T12:58:46.948Z,0.70
2022-12-11T13:01:19.316Z,0.70
2022-12-11T13:03:55.166Z,0.80
2022-12-11T13:06:34.140Z,0.80
2022-12-11T13:09:18.218Z,0.80
2022-12-11T13:11:50.082Z,0.80
2022-12-11T13:14:31.691Z,0.90
2022-12-11T13:17:26.081Z,0.90
2022-12-11T13:20:13.913Z,0.80
2022-12-11T13:23:16.870Z,0.80
2022-12-11T13:25:51.650Z,0.70
2022-12-11T13:28:28.449Z,0.70
2022-12-11T13:31:05.695Z,0.70
2022-12-11T13:33:39.625Z,0.70
2022-12-11T13:36:26.905Z,0.70
2022-12-11T13:38:59.183Z,0.80
2022-12-11T13:41:29.257Z,0.80
2022-12-11T13:43:59.763Z,0.70
2022-12-11T13:46:31.971Z,0.70
2022-12-11T13:49:03.464Z,0.70
2022-12-11T13:51:35.307Z,0.80
2022-12-11T13:54:07.243Z,0.80
2022-12-11T13:56:40.365Z,0.80
2022-12-11T13:59:22.173Z,0.80
2022-12-11T14:01:50.466Z,0.90
2022-12-11T14:04:21.888Z,0.80
2022-12-11T14:06:50.904Z,0.80
2022-12-11T14:09:23.700Z,0.80
2022-12-11T14:11:56.738Z,0.80
2022-12-11T14:14:31.923Z,0.80
2022-12-11T14:17:01.275Z,0.60
2022-12-11T14:19:29.743Z,0.70
2022-12-11T14:22:02.982Z,0.60
2022-12-11T14:24:33.451Z,0.60
2022-12-11T14:27:01.552Z,0.60
2022-12-11T14:29:32.034Z,0.60
2022-12-11T14:32:04.407Z,0.60
2022-12-11T14:34:36.125Z,0.60
2022-12-11T14:37:07.356Z,0.60
2022-12-11T14:39:42.126Z,0.50
2022-12-11T14:42:16.060Z,0.50
2022-12-11T14:44:50.365Z,0.50
2022-12-11T14:47:21.491Z,0.50
2022-12-11T14:49:55.140Z,0.50
2022-12-11T14:52:26.801Z,0.40
2022-12-11T14:55:04.671Z,0.40
2022-12-11T14:57:35.140Z,0.60
2022-12-11T15:00:03.405Z,0.40
2022-12-11T15:02:34.118Z,0.40
2022-12-11T15:05:21.750Z,0.50
2022-12-11T15:07:58.155Z,0.50
2022-12-11T15:10:32.472Z,0.60
2022-12-11T15:13:01.125Z,0.40
2022-12-11T15:15:31.643Z,0.40
2022-12-11T15:18:00.083Z,0.40
2022-12-11T15:20:30.538Z,0.40
2022-12-11T15:23:02.512Z,0.60
2022-12-11T15:25:32.868Z,0.60
2022-12-11T15:28:02.473Z,0.40
2022-12-11T15:30:36.170Z,0.30
2022-12-11T15:33:22.087Z,0.30
2022-12-11T15:36:01.578Z,0.50
2022-12-11T15:38:32.387Z,0.30
2022-12-11T15:41:02.823Z,0.30
2022-12-11T15:43:36.835Z,0.30
2022-12-11T15:46:05.464Z,0.20
2022-12-11T15:48:33.909Z,0.20
2022-12-11T15:51:03.669Z,0.20
2022-12-11T15:53:31.820Z,0.20
2022-12-11T15:56:01.548Z,0.10
2022-12-11T15:58:32.518Z,0.10
2022-12-11T16:01:00.593Z,0.10
2022-12-11T16:03:28.892Z,0.40
2022-12-11T16:05:57.308Z,0.10
2022-12-11T16:08:25.813Z,0.10
2022-12-11T16:10:55.930Z,0.10
2022-12-11T16:13:26.069Z,0.10
2022-12-11T16:15:55.473Z,0.20
2022-12-11T16:18:25.993Z,0.20
2022-12-11T16:20:54.125Z,0.20
2022-12-11T16:23:22.320Z,0.20
2022-12-11T16:25:51.216Z,0.20
2022-12-11T16:28:21.633Z,0.20
2022-12-11T16:30:51.372Z,0.20
2022-12-11T16:33:19.710Z,0.20
2022-12-11T16:35:47.912Z,0.10
2022-12-11T16:38:17.981Z,0.20
2022-12-11T16:40:46.078Z,0.20
2022-12-11T16:43:14.381Z,0.20
2022-12-11T16:45:44.399Z,0.10
2022-12-11T16:48:14.235Z,0.20
2022-12-11T16:50:42.464Z,0.10
2022-12-11T16:53:13.340Z,0.40
2022-12-11T16:55:42.488Z,0.10
2022-12-11T16:58:15.871Z,0.20
2022-12-11T17:00:44.143Z,0.10
2022-12-11T17:03:13.835Z,0.10
2022-12-11T17:05:42.378Z,0.00
2022-12-11T17:08:10.717Z,0.00
2022-12-11T17:10:42.120Z,0.00
2022-12-11T17:13:10.258Z,0.00
2022-12-11T17:15:43.718Z,0.00
2022-12-11T17:18:14.413Z,0.00
2022-12-11T17:20:43.011Z,0.20
2022-12-11T17:23:12.409Z,-0.10
2022-12-11T17:25:44.005Z,0.00
2022-12-11T17:28:13.858Z,0.10
2022-12-11T17:30:43.660Z,0.10
2022-12-11T17:33:14.143Z,0.30
2022-12-11T17:35:42.535Z,0.40
2022-12-11T17:38:10.798Z,0.00
2022-12-11T17:40:42.024Z,0.10
2022-12-11T17:43:11.162Z,0.10
2022-12-11T17:45:42.886Z,0.10
2022-12-11T17:48:11.943Z,0.10
2022-12-11T17:50:43.927Z,0.20
2022-12-11T17:53:13.055Z,0.20
2022-12-11T17:55:42.912Z,0.20
2022-12-11T17:58:11.687Z,0.20
2022-12-11T18:00:44.628Z,0.20
2022-12-11T18:03:13.393Z,0.20
2022-12-11T18:05:45.743Z,0.30
2022-12-11T18:08:14.776Z,0.20
2022-12-11T18:10:43.824Z,0.20
2022-12-11T18:13:12.167Z,0.20
2022-12-11T18:15:41.227Z,0.10
2022-12-11T18:18:12.522Z,0.20
2022-12-11T18:20:41.774Z,0.20
2022-12-11T18:23:13.955Z,0.20
2022-12-11T18:25:42.354Z,0.20
2022-12-11T18:28:13.514Z,0.10
2022-12-11T18:30:42.957Z,0.10
2022-12-11T18:33:16.178Z,0.10
2022-12-11T18:35:44.599Z,0.10
2022-12-11T18:38:15.309Z,0.10
2022-12-11T18:40:44.464Z,0.10
2022-12-11T18:43:14.518Z,0.10
2022-12-11T18:45:45.187Z,0.10
2022-12-11T18:48:14.686Z,0.00
2022-12-11T18:50:47.105Z,0.00
2022-12-11T18:53:17.803Z,0.00
2022-12-11T18:55:49.334Z,0.00
2022-12-11T18:58:20.894Z,0.00
2022-12-11T19:00:51.528Z,0.10
2022-12-11T19:03:20.717Z,0.10
2022-12-11T19:05:50.717Z,0.00
2022-12-11T19:08:21.169Z,0.00
2022-12-11T19:10:51.725Z,0.00
2022-12-11T19:13:22.431Z,0.00
2022-12-11T19:15:50.602Z,0.00
2022-12-11T19:18:19.296Z,0.00
2022-12-11T19:20:51.710Z,0.00
2022-12-11T19:23:25.453Z,0.00
2022-12-11T19:25:58.241Z,-0.10
2022-12-11T19:28:26.741Z,-0.10
2022-12-11T19:30:55.960Z,0.00
2022-12-11T19:33:24.634Z,0.00
2022-12-11T19:36:02.458Z,0.00
2022-12-11T19:38:32.079Z,0.00
2022-12-11T19:41:00.719Z,0.00
2022-12-11T19:43:30.950Z,0.00
2022-12-11T19:46:03.339Z,-0.10
2022-12-11T19:48:32.618Z,-0.10
2022-12-11T19:51:06.374Z,-0.10
2022-12-11T19:53:37.096Z,-0.10
2022-12-11T19:56:06.446Z,-0.10
2022-12-11T19:58:36.787Z,-0.10
2022-12-11T20:01:06.586Z,-0.10
2022-12-11T20:03:36.547Z,0.00
2022-12-11T20:06:08.901Z,0.00
2022-12-11T20:08:46.248Z,-0.10
2022-12-11T20:11:18.447Z,-0.10
2022-12-11T20:13:48.152Z,0.00
2022-12-11T20:16:22.081Z,-0.20
2022-12-11T20:18:57.674Z,-0.20
2022-12-11T20:21:27.650Z,-0.10
2022-12-11T20:23:57.282Z,-0.10
2022-12-11T20:26:29.539Z,-0.10
2022-12-11T20:28:58.626Z,0.10
2022-12-11T20:31:27.719Z,-0.10
2022-12-11T20:33:58.389Z,-0.10
2022-12-11T20:36:29.401Z,-0.10
2022-12-11T20:39:01.375Z,-0.10
2022-12-11T20:41:29.892Z,-0.10
2022-12-11T20:43:59.454Z,-0.10
2022-12-11T20:46:29.314Z,-0.10
2022-12-11T20:48:59.937Z,-0.10
2022-12-11T20:51:29.379Z,-0.10
2022-12-11T20:54:02.173Z,-0.10
2022-12-11T20:56:33.607Z,-0.10
2022-12-11T20:59:03.826Z,-0.10
2022-12-11T21:01:36.071Z,-0.10
2022-12-11T21:04:04.491Z,0.00
2022-12-11T21:06:37.368Z,0.00
2022-12-11T21:09:09.930Z,0.00
2022-12-11T21:11:38.412Z,0.00
2022-12-11T21:14:07.239Z,-0.10
2022-12-11T21:16:38.014Z,0.10
2022-12-11T21:19:10.202Z,0.00
2022-12-11T21:21:42.957Z,-0.10
2022-12-11T21:24:16.810Z,-0.10
2022-12-11T21:26:45.115Z,-0.10
2022-12-11T21:29:14.954Z,-0.10
2022-12-11T21:31:44.646Z,-0.10
2022-12-11T21:34:12.780Z,-0.10
2022-12-11T21:36:41.694Z,-0.10
2022-12-11T21:39:09.854Z,-0.10
2022-12-11T21:41:40.755Z,0.00
2022-12-11T21:45:25.934Z,0.00
2022-12-11T21:47:00.915Z,-0.10
2022-12-11T21:49:29.023Z,-0.10
2022-12-11T21:51:57.468Z,0.00
2022-12-11T21:54:26.432Z,-0.10
2022-12-11T21:56:58.262Z,-0.20
2022-12-11T21:59:27.204Z,-0.20
2022-12-11T22:01:56.808Z,-0.10
2022-12-11T22:04:25.368Z,-0.10
2022-12-11T22:06:53.480Z,0.00
2022-12-11T22:09:21.592Z,-0.10
2022-12-11T22:11:53.702Z,-0.20
2022-12-11T22:14:26.244Z,-0.10
2022-12-11T22:16:54.526Z,-0.20
2022-12-11T22:19:24.697Z,-0.10
2022-12-11T22:21:57.139Z,-0.20
2022-12-11T22:24:25.282Z,-0.20
2022-12-11T22:26:53.405Z,-0.20
2022-12-11T22:29:22.174Z,-0.10
2022-12-11T22:31:52.856Z,-0.10
2022-12-11T22:34:21.241Z,-0.10
2022-12-11T22:36:49.496Z,-0.10
2022-12-11T22:39:17.953Z,-0.10
2022-12-11T22:41:48.997Z,-0.10
2022-12-11T22:44:20.938Z,-0.10
2022-12-11T22:46:53.228Z,-0.10
2022-12-11T22:49:21.768Z,-0.10
2022-12-11T22:51:50.235Z,-0.10
2022-12-11T22:54:18.242Z,-0.20
2022-12-11T22:56:46.332Z,-0.10
2022-12-11T22:59:14.751Z,-0.20
2022-12-11T23:01:43.019Z,-0.10
2022-12-11T23:04:12.402Z,-0.20
2022-12-11T23:06:40.608Z,-0.20
2022-12-11T23:09:09.023Z,-0.20
2022-12-11T23:11:38.400Z,-0.20
2022-12-11T23:14:07.861Z,-0.20
2022-12-11T23:16:36.320Z,-0.20
2022-12-11T23:19:05.288Z,-0.20
2022-12-11T23:21:34.902Z,-0.20
2022-12-11T23:24:04.089Z,-0.20
2022-12-11T23:26:32.440Z,-0.20
2022-12-11T23:29:00.654Z,-0.30
2022-12-11T23:31:30.206Z,-0.20
2022-12-11T23:33:58.660Z,-0.20
2022-12-11T23:36:28.182Z,-0.20
2022-12-11T23:38:57.645Z,-0.10
2022-12-11T23:41:25.808Z,-0.20
2022-12-11T23:43:53.823Z,-0.20
2022-12-11T23:46:23.640Z,-0.20
2022-12-11T23:48:52.861Z,-0.30
2022-12-11T23:51:23.223Z,-0.30
2022-12-11T23:53:51.591Z,-0.30
2022-12-11T23:56:23.002Z,-0.30
2022-12-11T23:58:51.388Z,-0.30
